CST,Max TemperatureF,Mean TemperatureF,Min TemperatureF,Max Dew PointF,MeanDew PointF,Min DewpointF,Max Humidity, Mean Humidity, Min Humidity, Max Sea Level PressureIn, Mean Sea Level PressureIn, Min Sea Level PressureIn, Max VisibilityMiles, Mean VisibilityMiles, Min VisibilityMiles, Max Wind SpeedMPH, Mean Wind SpeedMPH, Max Gust SpeedMPH,PrecipitationIn, CloudCover, Events, WindDirDegrees
2012-12-1,82,71,60,64,61,55,93,72,51,30.17,30.12,30.04,10,7,1,16,9,22,0.00,5,,154
2012-12-2,83,75,66,65,63,57,87,65,43,30.21,30.13,30.08,10,10,8,14,7,18,0.00,5,,163
2012-12-3,79,71,63,67,64,61,93,78,62,30.11,30.06,30.00,10,8,3,14,7,18,T,6,Rain,148
2012-12-4,78,70,61,67,64,59,93,78,62,30.16,30.11,30.05,10,8,2,14,4,16,T,6,Rain,175
2012-12-5,64,60,56,59,56,53,93,83,73,30.21,30.13,30.06,10,9,3,9,4,,T,8,,14
2012-12-6,65,58,50,55,52,48,89,78,67,30.04,29.96,29.91,10,7,0,9,5,17,0.00,6,Fog,131
2012-12-7,77,64,51,63,56,48,97,79,60,29.94,29.89,29.82,10,4,0,8,2,13,0.00,5,Fog,126
2012-12-8,79,72,65,66,64,61,93,76,58,29.93,29.88,29.82,10,6,0,12,5,16,0.00,5,Fog,174
2012-12-9,81,69,57,66,63,52,90,74,58,29.91,29.85,29.77,10,8,2,14,8,18,0.94,6,Rain,208
2012-12-10,57,46,35,50,34,22,70,54,38,30.11,30.00,29.87,10,9,2,14,9,22,0.31,4,Rain,327
2012-12-11,54,41,28,30,24,20,78,52,26,30.25,30.17,30.12,10,10,10,12,3,16,0.00,0,,21
2012-12-12,58,42,26,31,22,10,85,50,15,30.37,30.30,30.24,10,10,10,8,3,,0.00,0,,76
2012-12-13,65,47,28,32,27,22,78,49,19,30.36,30.30,30.23,10,10,10,13,3,15,0.00,0,,111
2012-12-14,65,51,37,59,44,30,84,66,47,30.22,30.09,29.95,10,10,10,15,7,20,T,7,Rain,118
2012-12-15,71,67,63,64,61,57,93,86,78,29.98,29.92,29.86,10,8,2,14,3,20,0.16,8,Rain,163
2012-12-16,69,63,57,66,62,55,97,89,81,29.87,29.80,29.74,10,4,0,18,3,22,0.44,7,Fog-Rain,180
2012-12-17,68,55,42,59,45,36,93,63,32,29.91,29.85,29.79,10,8,2,13,5,18,0.00,2,,245
2012-12-18,79,58,37,55,44,34,86,57,27,29.95,29.88,29.83,10,10,10,15,6,21,0.00,0,,167
2012-12-19,81,70,58,66,62,55,93,74,54,29.87,29.79,29.70,10,10,9,20,11,33,0.00,5,,169
2012-12-20,74,54,33,67,24,9,79,48,17,30.42,30.19,29.74,10,10,10,18,11,40,0.18,1,,308
2012-12-21,64,46,27,33,23,13,78,46,14,30.51,30.42,30.36,10,10,5,8,1,12,0.00,0,,185
2012-12-22,70,50,30,48,36,26,85,56,26,30.38,30.27,30.13,10,10,10,17,5,23,0.00,1,,172
2012-12-23,76,67,57,60,56,49,84,67,50,30.10,29.96,29.87,10,10,10,21,8,30,T,5,,184
2012-12-24,70,58,45,59,41,28,90,56,22,29.99,29.89,29.79,10,10,6,9,3,14,0.00,0,,330
2012-12-25,69,52,35,64,47,28,93,74,55,30.02,29.71,29.49,10,7,0,18,11,29,0.40,8,Fog-Rain,246
2012-12-26,44,37,30,29,26,24,82,66,49,30.25,30.16,30.04,10,10,8,17,7,26,0.00,4,,319
2012-12-27,50,39,27,43,35,24,92,74,56,30.15,30.03,29.87,10,7,2,13,6,16,0.06,5,Rain,88
2012-12-28,50,46,41,48,43,30,93,79,65,30.17,29.90,29.79,10,6,0,17,8,25,0.04,8,Fog-Rain,337
2012-12-29,50,40,29,30,23,17,78,54,29,30.46,30.35,30.19,10,10,9,15,6,23,0.00,1,,330
2012-12-30,50,38,26,30,25,21,78,57,36,30.50,30.41,30.29,10,10,10,12,5,14,0.00,1,,111
2012-12-31,59,51,43,56,47,30,93,76,58,30.28,30.06,29.96,10,6,1,16,8,20,0.88,8,Rain,120